sensor_id;sensor_type;location;lat;lon;timestamp;temperature;humidity
14357;DHT22;7262;48.764;9.166;2023-05-29T00:01:05;14.40;99.90
14357;DHT22;7262;48.764;9.166;2023-05-29T00:03:33;14.40;99.90
14357;DHT22;7262;48.764;9.166;2023-05-29T00:06:01;14.40;99.90
14357;DHT22;7262;48.764;9.166;2023-05-29T00:08:29;14.40;99.90
14357;DHT22;7262;48.764;9.166;2023-05-29T00:10:56;14.40;99.90
14357;DHT22;7262;48.764;9.166;2023-05-29T00:13:23;14.30;99.90
14357;DHT22;7262;48.764;9.166;2023-05-29T00:15:51;14.10;99.90
14357;DHT22;7262;48.764;9.166;2023-05-29T00:18:18;14.00;99.90
14357;DHT22;7262;48.764;9.166;2023-05-29T00:20:44;14.00;99.90
14357;DHT22;7262;48.764;9.166;2023-05-29T00:23:11;14.00;99.90
14357;DHT22;7262;48.764;9.166;2023-05-29T00:25:39;14.00;99.90
14357;DHT22;7262;48.764;9.166;2023-05-29T00:28:06;14.00;99.90
14357;DHT22;7262;48.764;9.166;2023-05-29T00:30:34;13.90;99.90
14357;DHT22;7262;48.764;9.166;2023-05-29T00:33:01;13.90;99.90
14357;DHT22;7262;48.764;9.166;2023-05-29T00:35:28;13.90;99.90
14357;DHT22;7262;48.764;9.166;2023-05-29T00:37:55;13.90;99.90
14357;DHT22;7262;48.764;9.166;2023-05-29T00:40:22;13.90;99.90
14357;DHT22;7262;48.764;9.166;2023-05-29T00:42:50;13.90;99.90
14357;DHT22;7262;48.764;9.166;2023-05-29T00:45:17;13.90;99.90
14357;DHT22;7262;48.764;9.166;2023-05-29T00:47:44;13.70;99.90
14357;DHT22;7262;48.764;9.166;2023-05-29T00:50:11;13.60;99.90
14357;DHT22;7262;48.764;9.166;2023-05-29T00:52:39;13.60;99.90
14357;DHT22;7262;48.764;9.166;2023-05-29T00:55:07;13.60;99.90
14357;DHT22;7262;48.764;9.166;2023-05-29T00:57:35;13.60;99.90
14357;DHT22;7262;48.764;9.166;2023-05-29T01:00:05;13.50;99.90
14357;DHT22;7262;48.764;9.166;2023-05-29T01:02:32;13.50;99.90
14357;DHT22;7262;48.764;9.166;2023-05-29T01:05:01;13.40;99.90
14357;DHT22;7262;48.764;9.166;2023-05-29T01:07:28;13.40;99.90
14357;DHT22;7262;48.764;9.166;2023-05-29T01:09:54;13.40;99.90
14357;DHT22;7262;48.764;9.166;2023-05-29T01:12:24;13.30;99.90
14357;DHT22;7262;48.764;9.166;2023-05-29T01:14:57;13.30;99.90
14357;DHT22;7262;48.764;9.166;2023-05-29T01:17:32;13.30;99.90
14357;DHT22;7262;48.764;9.166;2023-05-29T01:20:06;13.30;99.90
14357;DHT22;7262;48.764;9.166;2023-05-29T01:22:37;13.20;99.90
14357;DHT22;7262;48.764;9.166;2023-05-29T01:25:11;13.10;99.90
14357;DHT22;7262;48.764;9.166;2023-05-29T01:27:40;13.10;99.90
14357;DHT22;7262;48.764;9.166;2023-05-29T01:30:08;13.10;99.90
14357;DHT22;7262;48.764;9.166;2023-05-29T01:32:36;13.00;99.90
14357;DHT22;7262;48.764;9.166;2023-05-29T01:35:03;13.00;99.90
14357;DHT22;7262;48.764;9.166;2023-05-29T01:37:29;12.90;99.90
14357;DHT22;7262;48.764;9.166;2023-05-29T01:39:56;12.90;99.90
14357;DHT22;7262;48.764;9.166;2023-05-29T01:42:24;12.90;99.90
14357;DHT22;7262;48.764;9.166;2023-05-29T01:44:52;12.90;99.90
14357;DHT22;7262;48.764;9.166;2023-05-29T01:47:19;12.90;99.90
14357;DHT22;7262;48.764;9.166;2023-05-29T01:49:47;12.90;99.90
14357;DHT22;7262;48.764;9.166;2023-05-29T01:52:16;12.80;99.90
14357;DHT22;7262;48.764;9.166;2023-05-29T01:54:43;12.70;99.90
14357;DHT22;7262;48.764;9.166;2023-05-29T01:57:10;12.70;99.90
14357;DHT22;7262;48.764;9.166;2023-05-29T01:59:37;12.70;99.90
14357;DHT22;7262;48.764;9.166;2023-05-29T02:02:08;12.80;99.90
14357;DHT22;7262;48.764;9.166;2023-05-29T02:04:35;12.70;99.90
14357;DHT22;7262;48.764;9.166;2023-05-29T02:07:03;12.70;99.90
14357;DHT22;7262;48.764;9.166;2023-05-29T02:09:30;12.70;99.90
14357;DHT22;7262;48.764;9.166;2023-05-29T02:11:57;12.60;99.90
14357;DHT22;7262;48.764;9.166;2023-05-29T02:14:23;12.50;99.90
14357;DHT22;7262;48.764;9.166;2023-05-29T02:16:50;12.50;99.90
14357;DHT22;7262;48.764;9.166;2023-05-29T02:19:19;12.50;99.90
14357;DHT22;7262;48.764;9.166;2023-05-29T02:21:46;12.60;99.90
14357;DHT22;7262;48.764;9.166;2023-05-29T02:24:13;12.50;99.90
14357;DHT22;7262;48.764;9.166;2023-05-29T02:26:40;12.50;99.90
14357;DHT22;7262;48.764;9.166;2023-05-29T02:29:07;12.50;99.90
14357;DHT22;7262;48.764;9.166;2023-05-29T02:31:34;12.40;99.90
14357;DHT22;7262;48.764;9.166;2023-05-29T02:34:00;12.40;99.90
14357;DHT22;7262;48.764;9.166;2023-05-29T02:36:28;12.40;99.90
14357;DHT22;7262;48.764;9.166;2023-05-29T02:38:55;12.40;99.90
14357;DHT22;7262;48.764;9.166;2023-05-29T02:41:22;12.40;99.90
14357;DHT22;7262;48.764;9.166;2023-05-29T02:43:49;12.30;99.90
14357;DHT22;7262;48.764;9.166;2023-05-29T02:46:15;12.30;99.90
14357;DHT22;7262;48.764;9.166;2023-05-29T02:48:44;12.20;99.90
14357;DHT22;7262;48.764;9.166;2023-05-29T02:51:10;12.10;99.90
14357;DHT22;7262;48.764;9.166;2023-05-29T02:53:38;12.00;99.90
14357;DHT22;7262;48.764;9.166;2023-05-29T02:56:05;11.90;99.90
14357;DHT22;7262;48.764;9.166;2023-05-29T02:58:34;12.00;99.90
14357;DHT22;7262;48.764;9.166;2023-05-29T03:01:01;12.00;99.90
14357;DHT22;7262;48.764;9.166;2023-05-29T03:03:29;12.00;99.90
14357;DHT22;7262;48.764;9.166;2023-05-29T03:05:56;12.00;99.90
14357;DHT22;7262;48.764;9.166;2023-05-29T03:08:22;11.90;99.90
14357;DHT22;7262;48.764;9.166;2023-05-29T03:10:52;11.90;99.90
14357;DHT22;7262;48.764;9.166;2023-05-29T03:13:19;11.90;99.90
14357;DHT22;7262;48.764;9.166;2023-05-29T03:15:46;11.90;99.90
14357;DHT22;7262;48.764;9.166;2023-05-29T03:18:13;11.90;99.90
14357;DHT22;7262;48.764;9.166;2023-05-29T03:20:40;11.80;99.90
14357;DHT22;7262;48.764;9.166;2023-05-29T03:23:11;11.70;99.90
14357;DHT22;7262;48.764;9.166;2023-05-29T03:25:37;11.60;99.90
14357;DHT22;7262;48.764;9.166;2023-05-29T03:28:05;11.60;99.90
14357;DHT22;7262;48.764;9.166;2023-05-29T03:30:33;11.60;99.90
14357;DHT22;7262;48.764;9.166;2023-05-29T03:33:00;11.70;99.90
14357;DHT22;7262;48.764;9.166;2023-05-29T03:35:29;11.70;99.90
14357;DHT22;7262;48.764;9.166;2023-05-29T03:37:55;11.70;99.90
14357;DHT22;7262;48.764;9.166;2023-05-29T03:40:22;11.70;99.90
14357;DHT22;7262;48.764;9.166;2023-05-29T03:42:49;11.60;99.90
14357;DHT22;7262;48.764;9.166;2023-05-29T03:45:17;11.60;99.90
14357;DHT22;7262;48.764;9.166;2023-05-29T03:47:44;11.60;99.90
14357;DHT22;7262;48.764;9.166;2023-05-29T03:50:11;11.70;99.90
14357;DHT22;7262;48.764;9.166;2023-05-29T03:52:40;11.70;99.90
14357;DHT22;7262;48.764;9.166;2023-05-29T03:55:08;11.70;99.90
14357;DHT22;7262;48.764;9.166;2023-05-29T03:57:38;11.60;99.90
14357;DHT22;7262;48.764;9.166;2023-05-29T04:00:08;11.60;99.90
14357;DHT22;7262;48.764;9.166;2023-05-29T04:02:38;11.60;99.90
14357;DHT22;7262;48.764;9.166;2023-05-29T04:05:05;11.70;99.90
14357;DHT22;7262;48.764;9.166;2023-05-29T04:07:32;11.70;99.90
14357;DHT22;7262;48.764;9.166;2023-05-29T04:09:59;11.70;99.90
14357;DHT22;7262;48.764;9.166;2023-05-29T04:12:26;11.80;99.90
14357;DHT22;7262;48.764;9.166;2023-05-29T04:14:52;11.70;99.90
14357;DHT22;7262;48.764;9.166;2023-05-29T04:17:19;11.70;99.90
14357;DHT22;7262;48.764;9.166;2023-05-29T04:19:48;11.70;99.90
14357;DHT22;7262;48.764;9.166;2023-05-29T04:22:14;11.70;99.90
14357;DHT22;7262;48.764;9.166;2023-05-29T04:24:41;11.60;99.90
14357;DHT22;7262;48.764;9.166;2023-05-29T04:27:08;11.70;99.90
14357;DHT22;7262;48.764;9.166;2023-05-29T04:29:38;11.80;99.90
14357;DHT22;7262;48.764;9.166;2023-05-29T04:32:05;11.90;99.90
14357;DHT22;7262;48.764;9.166;2023-05-29T04:34:33;12.10;99.90
14357;DHT22;7262;48.764;9.166;2023-05-29T04:37:02;12.20;99.90
14357;DHT22;7262;48.764;9.166;2023-05-29T04:39:29;12.40;99.90
14357;DHT22;7262;48.764;9.166;2023-05-29T04:41:57;12.40;99.90
14357;DHT22;7262;48.764;9.166;2023-05-29T04:44:27;12.50;99.90
14357;DHT22;7262;48.764;9.166;2023-05-29T04:46:55;12.60;99.90
14357;DHT22;7262;48.764;9.166;2023-05-29T04:49:23;12.70;99.90
14357;DHT22;7262;48.764;9.166;2023-05-29T04:51:49;12.60;99.90
14357;DHT22;7262;48.764;9.166;2023-05-29T04:54:21;12.80;99.90
14357;DHT22;7262;48.764;9.166;2023-05-29T04:56:48;12.80;99.90
14357;DHT22;7262;48.764;9.166;2023-05-29T04:59:15;12.90;99.90
14357;DHT22;7262;48.764;9.166;2023-05-29T05:01:42;13.00;99.90
14357;DHT22;7262;48.764;9.166;2023-05-29T05:04:09;13.10;99.90
14357;DHT22;7262;48.764;9.166;2023-05-29T05:06:36;13.10;99.90
14357;DHT22;7262;48.764;9.166;2023-05-29T05:09:03;13.30;99.90
14357;DHT22;7262;48.764;9.166;2023-05-29T05:11:31;13.40;99.90
14357;DHT22;7262;48.764;9.166;2023-05-29T05:13:58;13.80;99.90
14357;DHT22;7262;48.764;9.166;2023-05-29T05:16:25;14.20;99.90
14357;DHT22;7262;48.764;9.166;2023-05-29T05:18:54;14.60;99.90
14357;DHT22;7262;48.764;9.166;2023-05-29T05:21:21;14.80;99.90
14357;DHT22;7262;48.764;9.166;2023-05-29T05:23:47;14.80;99.90
14357;DHT22;7262;48.764;9.166;2023-05-29T05:26:14;15.20;99.90
14357;DHT22;7262;48.764;9.166;2023-05-29T05:28:42;16.10;99.90
14357;DHT22;7262;48.764;9.166;2023-05-29T05:31:09;17.30;99.90
14357;DHT22;7262;48.764;9.166;2023-05-29T05:33:36;18.50;99.90
14357;DHT22;7262;48.764;9.166;2023-05-29T05:36:03;19.50;99.90
14357;DHT22;7262;48.764;9.166;2023-05-29T05:38:30;20.00;99.90
14357;DHT22;7262;48.764;9.166;2023-05-29T05:40:57;20.40;99.90
14357;DHT22;7262;48.764;9.166;2023-05-29T05:43:24;21.10;99.90
14357;DHT22;7262;48.764;9.166;2023-05-29T05:45:54;21.90;99.90
14357;DHT22;7262;48.764;9.166;2023-05-29T05:48:21;22.80;99.90
14357;DHT22;7262;48.764;9.166;2023-05-29T05:50:47;23.40;99.90
14357;DHT22;7262;48.764;9.166;2023-05-29T05:53:14;24.40;99.90
14357;DHT22;7262;48.764;9.166;2023-05-29T05:55:42;25.20;99.90
14357;DHT22;7262;48.764;9.166;2023-05-29T05:58:09;25.60;99.90
14357;DHT22;7262;48.764;9.166;2023-05-29T06:00:36;26.10;99.90
14357;DHT22;7262;48.764;9.166;2023-05-29T06:03:04;26.40;99.90
14357;DHT22;7262;48.764;9.166;2023-05-29T06:05:31;26.40;99.90
14357;DHT22;7262;48.764;9.166;2023-05-29T06:07:59;26.10;99.90
14357;DHT22;7262;48.764;9.166;2023-05-29T06:10:26;25.70;99.90
14357;DHT22;7262;48.764;9.166;2023-05-29T06:12:53;24.50;99.90
14357;DHT22;7262;48.764;9.166;2023-05-29T06:15:20;24.30;99.90
14357;DHT22;7262;48.764;9.166;2023-05-29T06:17:47;24.70;99.90
14357;DHT22;7262;48.764;9.166;2023-05-29T06:20:15;25.00;99.90
14357;DHT22;7262;48.764;9.166;2023-05-29T06:22:42;24.90;99.90
14357;DHT22;7262;48.764;9.166;2023-05-29T06:25:08;24.80;99.90
14357;DHT22;7262;48.764;9.166;2023-05-29T06:27:35;24.90;99.90
14357;DHT22;7262;48.764;9.166;2023-05-29T06:30:03;25.10;99.90
14357;DHT22;7262;48.764;9.166;2023-05-29T06:32:29;25.30;99.90
14357;DHT22;7262;48.764;9.166;2023-05-29T06:34:56;25.50;99.90
14357;DHT22;7262;48.764;9.166;2023-05-29T06:37:24;25.30;99.90
14357;DHT22;7262;48.764;9.166;2023-05-29T06:39:52;25.70;99.90
14357;DHT22;7262;48.764;9.166;2023-05-29T06:42:20;26.30;99.90
14357;DHT22;7262;48.764;9.166;2023-05-29T06:44:46;26.50;99.90
14357;DHT22;7262;48.764;9.166;2023-05-29T06:47:13;27.00;99.90
14357;DHT22;7262;48.764;9.166;2023-05-29T06:49:40;26.80;99.90
14357;DHT22;7262;48.764;9.166;2023-05-29T06:52:07;26.40;99.90
14357;DHT22;7262;48.764;9.166;2023-05-29T06:54:35;25.90;99.90
14357;DHT22;7262;48.764;9.166;2023-05-29T06:57:01;24.70;99.90
14357;DHT22;7262;48.764;9.166;2023-05-29T06:59:28;24.70;99.90
14357;DHT22;7262;48.764;9.166;2023-05-29T07:01:55;25.70;99.90
14357;DHT22;7262;48.764;9.166;2023-05-29T07:04:22;26.80;99.90
14357;DHT22;7262;48.764;9.166;2023-05-29T07:06:49;25.90;99.90
14357;DHT22;7262;48.764;9.166;2023-05-29T07:09:16;25.60;99.90
14357;DHT22;7262;48.764;9.166;2023-05-29T07:11:45;26.50;99.90
14357;DHT22;7262;48.764;9.166;2023-05-29T07:14:12;26.50;99.90
14357;DHT22;7262;48.764;9.166;2023-05-29T07:16:39;27.10;99.90
14357;DHT22;7262;48.764;9.166;2023-05-29T07:19:06;26.50;99.90
14357;DHT22;7262;48.764;9.166;2023-05-29T07:21:33;27.20;99.90
14357;DHT22;7262;48.764;9.166;2023-05-29T07:24:01;26.60;99.90
14357;DHT22;7262;48.764;9.166;2023-05-29T07:26:27;26.40;99.90
14357;DHT22;7262;48.764;9.166;2023-05-29T07:28:55;26.80;99.90
14357;DHT22;7262;48.764;9.166;2023-05-29T07:31:22;28.10;99.90
14357;DHT22;7262;48.764;9.166;2023-05-29T07:33:49;28.50;99.90
14357;DHT22;7262;48.764;9.166;2023-05-29T07:36:16;28.60;99.90
14357;DHT22;7262;48.764;9.166;2023-05-29T07:38:43;27.50;99.90
14357;DHT22;7262;48.764;9.166;2023-05-29T07:41:10;27.50;99.90
14357;DHT22;7262;48.764;9.166;2023-05-29T07:43:37;27.30;99.90
14357;DHT22;7262;48.764;9.166;2023-05-29T07:46:05;27.20;99.90
14357;DHT22;7262;48.764;9.166;2023-05-29T07:48:32;27.60;99.90
14357;DHT22;7262;48.764;9.166;2023-05-29T07:50:59;27.90;99.80
14357;DHT22;7262;48.764;9.166;2023-05-29T07:53:26;27.70;99.90
14357;DHT22;7262;48.764;9.166;2023-05-29T07:55:53;28.50;99.20
14357;DHT22;7262;48.764;9.166;2023-05-29T07:58:20;28.00;98.80
14357;DHT22;7262;48.764;9.166;2023-05-29T08:00:50;26.90;99.60
14357;DHT22;7262;48.764;9.166;2023-05-29T08:03:20;27.50;99.50
14357;DHT22;7262;48.764;9.166;2023-05-29T08:05:52;28.30;98.10
14357;DHT22;7262;48.764;9.166;2023-05-29T08:08:19;28.90;97.60
14357;DHT22;7262;48.764;9.166;2023-05-29T08:10:46;28.60;97.70
14357;DHT22;7262;48.764;9.166;2023-05-29T08:13:13;28.30;97.30
14357;DHT22;7262;48.764;9.166;2023-05-29T08:15:39;27.90;97.20
14357;DHT22;7262;48.764;9.166;2023-05-29T08:18:06;27.40;97.70
14357;DHT22;7262;48.764;9.166;2023-05-29T08:20:34;28.20;97.70
14357;DHT22;7262;48.764;9.166;2023-05-29T08:23:01;28.20;96.80
14357;DHT22;7262;48.764;9.166;2023-05-29T08:25:28;28.20;96.80
14357;DHT22;7262;48.764;9.166;2023-05-29T08:27:55;28.60;96.30
14357;DHT22;7262;48.764;9.166;2023-05-29T08:30:25;28.30;96.60
14357;DHT22;7262;48.764;9.166;2023-05-29T08:32:51;28.30;96.50
14357;DHT22;7262;48.764;9.166;2023-05-29T08:35:18;28.60;96.50
14357;DHT22;7262;48.764;9.166;2023-05-29T08:37:47;29.20;95.60
14357;DHT22;7262;48.764;9.166;2023-05-29T08:40:14;29.60;95.70
14357;DHT22;7262;48.764;9.166;2023-05-29T08:42:45;29.80;94.60
14357;DHT22;7262;48.764;9.166;2023-05-29T08:45:13;29.30;95.00
14357;DHT22;7262;48.764;9.166;2023-05-29T08:47:41;29.20;95.20
14357;DHT22;7262;48.764;9.166;2023-05-29T08:50:07;29.90;94.60
14357;DHT22;7262;48.764;9.166;2023-05-29T08:52:35;30.40;94.20
14357;DHT22;7262;48.764;9.166;2023-05-29T08:55:04;30.90;93.10
14357;DHT22;7262;48.764;9.166;2023-05-29T08:57:31;31.20;92.70
14357;DHT22;7262;48.764;9.166;2023-05-29T08:59:59;30.40;93.30
14357;DHT22;7262;48.764;9.166;2023-05-29T09:02:26;29.90;93.80
14357;DHT22;7262;48.764;9.166;2023-05-29T09:04:54;29.80;94.10
14357;DHT22;7262;48.764;9.166;2023-05-29T09:07:22;29.80;94.00
14357;DHT22;7262;48.764;9.166;2023-05-29T09:09:51;29.80;94.30
14357;DHT22;7262;48.764;9.166;2023-05-29T09:12:19;29.70;94.80
14357;DHT22;7262;48.764;9.166;2023-05-29T09:14:48;29.80;94.50
14357;DHT22;7262;48.764;9.166;2023-05-29T09:17:15;30.20;94.60
14357;DHT22;7262;48.764;9.166;2023-05-29T09:19:42;29.30;94.80
14357;DHT22;7262;48.764;9.166;2023-05-29T09:22:11;29.30;94.90
14357;DHT22;7262;48.764;9.166;2023-05-29T09:24:40;29.10;95.30
14357;DHT22;7262;48.764;9.166;2023-05-29T09:27:07;29.00;95.70
14357;DHT22;7262;48.764;9.166;2023-05-29T09:29:38;29.50;95.50
14357;DHT22;7262;48.764;9.166;2023-05-29T09:32:07;29.00;96.30
14357;DHT22;7262;48.764;9.166;2023-05-29T09:34:35;29.40;95.10
14357;DHT22;7262;48.764;9.166;2023-05-29T09:37:02;29.40;95.50
14357;DHT22;7262;48.764;9.166;2023-05-29T09:39:34;30.10;95.30
14357;DHT22;7262;48.764;9.166;2023-05-29T09:42:00;29.60;95.00
14357;DHT22;7262;48.764;9.166;2023-05-29T09:44:29;30.00;94.80
14357;DHT22;7262;48.764;9.166;2023-05-29T09:46:58;30.60;94.50
14357;DHT22;7262;48.764;9.166;2023-05-29T09:49:25;30.10;94.40
14357;DHT22;7262;48.764;9.166;2023-05-29T09:51:53;29.70;94.80
14357;DHT22;7262;48.764;9.166;2023-05-29T09:54:19;29.20;94.70
14357;DHT22;7262;48.764;9.166;2023-05-29T09:56:46;29.10;95.40
14357;DHT22;7262;48.764;9.166;2023-05-29T09:59:14;29.30;95.40
14357;DHT22;7262;48.764;9.166;2023-05-29T10:01:43;28.70;94.90
14357;DHT22;7262;48.764;9.166;2023-05-29T10:04:12;29.10;95.60
14357;DHT22;7262;48.764;9.166;2023-05-29T10:06:41;29.80;94.50
14357;DHT22;7262;48.764;9.166;2023-05-29T10:09:08;29.40;94.90
14357;DHT22;7262;48.764;9.166;2023-05-29T10:11:37;29.40;94.00
14357;DHT22;7262;48.764;9.166;2023-05-29T10:14:06;29.60;94.20
14357;DHT22;7262;48.764;9.166;2023-05-29T10:16:36;30.70;93.60
14357;DHT22;7262;48.764;9.166;2023-05-29T10:19:09;30.50;93.10
14357;DHT22;7262;48.764;9.166;2023-05-29T10:21:41;30.40;92.80
14357;DHT22;7262;48.764;9.166;2023-05-29T10:24:09;30.20;92.70
14357;DHT22;7262;48.764;9.166;2023-05-29T10:26:38;29.70;92.40
14357;DHT22;7262;48.764;9.166;2023-05-29T10:29:11;29.90;92.60
14357;DHT22;7262;48.764;9.166;2023-05-29T10:31:43;29.70;92.00
14357;DHT22;7262;48.764;9.166;2023-05-29T10:34:14;29.20;91.70
14357;DHT22;7262;48.764;9.166;2023-05-29T10:36:49;29.00;92.20
14357;DHT22;7262;48.764;9.166;2023-05-29T10:39:20;28.80;91.60
14357;DHT22;7262;48.764;9.166;2023-05-29T10:41:47;29.00;91.90
14357;DHT22;7262;48.764;9.166;2023-05-29T10:47:09;28.80;91.80
14357;DHT22;7262;48.764;9.166;2023-05-29T10:49:37;28.80;91.70
14357;DHT22;7262;48.764;9.166;2023-05-29T10:52:06;29.30;91.10
14357;DHT22;7262;48.764;9.166;2023-05-29T10:54:40;29.50;90.90
14357;DHT22;7262;48.764;9.166;2023-05-29T10:57:07;29.20;91.00
14357;DHT22;7262;48.764;9.166;2023-05-29T10:59:35;29.30;91.30
14357;DHT22;7262;48.764;9.166;2023-05-29T11:02:02;29.50;91.20
14357;DHT22;7262;48.764;9.166;2023-05-29T11:04:29;29.30;90.50
14357;DHT22;7262;48.764;9.166;2023-05-29T11:06:59;29.10;90.60
14357;DHT22;7262;48.764;9.166;2023-05-29T11:09:33;29.60;90.90
14357;DHT22;7262;48.764;9.166;2023-05-29T11:12:11;29.90;90.00
14357;DHT22;7262;48.764;9.166;2023-05-29T11:14:44;28.70;90.30
14357;DHT22;7262;48.764;9.166;2023-05-29T11:19:54;28.70;90.70
14357;DHT22;7262;48.764;9.166;2023-05-29T11:22:23;29.50;90.00
14357;DHT22;7262;48.764;9.166;2023-05-29T11:24:54;29.00;89.60
14357;DHT22;7262;48.764;9.166;2023-05-29T11:27:23;29.30;90.40
14357;DHT22;7262;48.764;9.166;2023-05-29T11:29:49;29.40;90.00
14357;DHT22;7262;48.764;9.166;2023-05-29T11:32:19;29.70;90.00
14357;DHT22;7262;48.764;9.166;2023-05-29T11:34:48;30.10;88.50
14357;DHT22;7262;48.764;9.166;2023-05-29T11:37:18;29.20;88.60
14357;DHT22;7262;48.764;9.166;2023-05-29T11:39:45;29.00;89.30
14357;DHT22;7262;48.764;9.166;2023-05-29T11:42:13;29.30;89.20
14357;DHT22;7262;48.764;9.166;2023-05-29T11:44:40;28.60;89.00
14357;DHT22;7262;48.764;9.166;2023-05-29T11:47:07;28.60;89.50
14357;DHT22;7262;48.764;9.166;2023-05-29T11:49:34;29.00;88.60
14357;DHT22;7262;48.764;9.166;2023-05-29T11:52:05;29.60;88.20
14357;DHT22;7262;48.764;9.166;2023-05-29T11:54:32;30.70;86.00
14357;DHT22;7262;48.764;9.166;2023-05-29T11:56:59;30.70;84.20
14357;DHT22;7262;48.764;9.166;2023-05-29T11:59:29;31.10;83.10
14357;DHT22;7262;48.764;9.166;2023-05-29T12:01:56;31.20;79.50
14357;DHT22;7262;48.764;9.166;2023-05-29T12:04:23;30.80;79.10
14357;DHT22;7262;48.764;9.166;2023-05-29T12:06:50;30.20;80.50
14357;DHT22;7262;48.764;9.166;2023-05-29T12:09:24;30.30;81.30
14357;DHT22;7262;48.764;9.166;2023-05-29T12:11:51;29.80;81.40
14357;DHT22;7262;48.764;9.166;2023-05-29T12:14:18;30.50;80.20
14357;DHT22;7262;48.764;9.166;2023-05-29T12:16:46;30.50;80.20
14357;DHT22;7262;48.764;9.166;2023-05-29T12:19:13;30.60;80.30
14357;DHT22;7262;48.764;9.166;2023-05-29T12:21:41;31.20;78.00
14357;DHT22;7262;48.764;9.166;2023-05-29T12:24:07;30.90;77.60
14357;DHT22;7262;48.764;9.166;2023-05-29T12:26:35;31.40;76.60
14357;DHT22;7262;48.764;9.166;2023-05-29T12:29:02;31.80;76.20
14357;DHT22;7262;48.764;9.166;2023-05-29T12:31:29;32.00;75.00
14357;DHT22;7262;48.764;9.166;2023-05-29T12:34:01;30.80;76.00
14357;DHT22;7262;48.764;9.166;2023-05-29T12:36:28;30.30;77.20
14357;DHT22;7262;48.764;9.166;2023-05-29T12:38:56;30.90;76.20
14357;DHT22;7262;48.764;9.166;2023-05-29T12:41:24;31.10;75.10
14357;DHT22;7262;48.764;9.166;2023-05-29T12:43:52;31.20;74.20
14357;DHT22;7262;48.764;9.166;2023-05-29T12:46:19;31.10;74.70
14357;DHT22;7262;48.764;9.166;2023-05-29T12:48:46;31.50;74.30
14357;DHT22;7262;48.764;9.166;2023-05-29T12:51:14;31.80;72.90
14357;DHT22;7262;48.764;9.166;2023-05-29T12:53:41;31.80;72.00
14357;DHT22;7262;48.764;9.166;2023-05-29T12:56:07;31.60;72.40
14357;DHT22;7262;48.764;9.166;2023-05-29T12:58:34;31.30;72.70
14357;DHT22;7262;48.764;9.166;2023-05-29T13:01:01;31.30;72.30
14357;DHT22;7262;48.764;9.166;2023-05-29T13:03:27;31.60;71.10
14357;DHT22;7262;48.764;9.166;2023-05-29T13:05:55;31.40;70.30
14357;DHT22;7262;48.764;9.166;2023-05-29T13:08:23;31.50;68.60
14357;DHT22;7262;48.764;9.166;2023-05-29T13:10:50;32.40;68.80
14357;DHT22;7262;48.764;9.166;2023-05-29T13:13:16;32.40;67.90
14357;DHT22;7262;48.764;9.166;2023-05-29T13:15:43;31.00;68.60
14357;DHT22;7262;48.764;9.166;2023-05-29T13:18:10;30.20;68.60
14357;DHT22;7262;48.764;9.166;2023-05-29T13:20:38;30.60;70.50
14357;DHT22;7262;48.764;9.166;2023-05-29T13:23:05;31.80;67.80
14357;DHT22;7262;48.764;9.166;2023-05-29T13:25:33;31.80;67.40
14357;DHT22;7262;48.764;9.166;2023-05-29T13:28:00;32.00;66.80
14357;DHT22;7262;48.764;9.166;2023-05-29T13:30:27;31.90;68.00
14357;DHT22;7262;48.764;9.166;2023-05-29T13:32:54;31.80;67.30
14357;DHT22;7262;48.764;9.166;2023-05-29T13:35:22;31.70;67.90
14357;DHT22;7262;48.764;9.166;2023-05-29T13:37:52;31.40;67.60
14357;DHT22;7262;48.764;9.166;2023-05-29T13:40:19;31.30;67.80
14357;DHT22;7262;48.764;9.166;2023-05-29T13:42:47;31.00;67.70
14357;DHT22;7262;48.764;9.166;2023-05-29T13:45:14;31.50;68.20
14357;DHT22;7262;48.764;9.166;2023-05-29T13:47:41;32.70;67.70
14357;DHT22;7262;48.764;9.166;2023-05-29T13:50:08;33.00;65.90
14357;DHT22;7262;48.764;9.166;2023-05-29T13:52:35;32.30;66.70
14357;DHT22;7262;48.764;9.166;2023-05-29T13:55:02;31.60;66.50
14357;DHT22;7262;48.764;9.166;2023-05-29T13:57:33;31.70;66.80
14357;DHT22;7262;48.764;9.166;2023-05-29T14:00:02;32.10;67.50
14357;DHT22;7262;48.764;9.166;2023-05-29T14:02:28;32.20;67.40
14357;DHT22;7262;48.764;9.166;2023-05-29T14:04:56;31.60;68.10
14357;DHT22;7262;48.764;9.166;2023-05-29T14:07:23;32.00;67.20
14357;DHT22;7262;48.764;9.166;2023-05-29T14:09:50;31.40;66.70
14357;DHT22;7262;48.764;9.166;2023-05-29T14:12:17;31.00;67.20
14357;DHT22;7262;48.764;9.166;2023-05-29T14:14:44;30.80;67.20
14357;DHT22;7262;48.764;9.166;2023-05-29T14:17:13;31.30;67.20
14357;DHT22;7262;48.764;9.166;2023-05-29T14:19:40;31.40;67.10
14357;DHT22;7262;48.764;9.166;2023-05-29T14:22:07;31.40;67.80
14357;DHT22;7262;48.764;9.166;2023-05-29T14:24:33;31.70;67.80
14357;DHT22;7262;48.764;9.166;2023-05-29T14:27:01;31.10;67.90
14357;DHT22;7262;48.764;9.166;2023-05-29T14:29:28;30.70;69.80
14357;DHT22;7262;48.764;9.166;2023-05-29T14:31:55;29.80;68.60
14357;DHT22;7262;48.764;9.166;2023-05-29T14:34:25;29.20;69.90
14357;DHT22;7262;48.764;9.166;2023-05-29T14:36:55;28.60;71.10
14357;DHT22;7262;48.764;9.166;2023-05-29T14:39:21;28.20;72.10
14357;DHT22;7262;48.764;9.166;2023-05-29T14:41:48;28.00;73.80
14357;DHT22;7262;48.764;9.166;2023-05-29T14:44:15;28.00;74.10
14357;DHT22;7262;48.764;9.166;2023-05-29T14:46:43;27.90;73.50
14357;DHT22;7262;48.764;9.166;2023-05-29T14:49:10;28.00;72.30
14357;DHT22;7262;48.764;9.166;2023-05-29T14:51:38;27.90;72.80
14357;DHT22;7262;48.764;9.166;2023-05-29T14:54:06;27.60;72.60
14357;DHT22;7262;48.764;9.166;2023-05-29T14:56:34;27.20;72.90
14357;DHT22;7262;48.764;9.166;2023-05-29T14:59:01;27.40;73.80
14357;DHT22;7262;48.764;9.166;2023-05-29T15:01:28;27.30;74.90
14357;DHT22;7262;48.764;9.166;2023-05-29T15:03:55;27.50;73.80
14357;DHT22;7262;48.764;9.166;2023-05-29T15:06:21;27.60;73.90
14357;DHT22;7262;48.764;9.166;2023-05-29T15:08:50;27.30;74.10
14357;DHT22;7262;48.764;9.166;2023-05-29T15:11:17;27.30;74.70
14357;DHT22;7262;48.764;9.166;2023-05-29T15:13:44;27.50;75.80
14357;DHT22;7262;48.764;9.166;2023-05-29T15:16:11;27.20;76.60
14357;DHT22;7262;48.764;9.166;2023-05-29T15:18:38;27.00;77.30
14357;DHT22;7262;48.764;9.166;2023-05-29T15:21:06;26.90;77.40
14357;DHT22;7262;48.764;9.166;2023-05-29T15:23:33;27.00;78.70
14357;DHT22;7262;48.764;9.166;2023-05-29T15:26:02;27.00;78.30
14357;DHT22;7262;48.764;9.166;2023-05-29T15:28:29;26.90;78.90
14357;DHT22;7262;48.764;9.166;2023-05-29T15:30:56;26.90;79.00
14357;DHT22;7262;48.764;9.166;2023-05-29T15:33:23;26.90;78.80
14357;DHT22;7262;48.764;9.166;2023-05-29T15:35:49;27.00;80.00
14357;DHT22;7262;48.764;9.166;2023-05-29T15:38:16;26.90;79.40
14357;DHT22;7262;48.764;9.166;2023-05-29T15:40:43;26.80;79.60
14357;DHT22;7262;48.764;9.166;2023-05-29T15:43:11;26.70;80.20
14357;DHT22;7262;48.764;9.166;2023-05-29T15:45:38;26.70;80.80
14357;DHT22;7262;48.764;9.166;2023-05-29T15:48:05;26.60;80.80
14357;DHT22;7262;48.764;9.166;2023-05-29T15:50:32;26.60;81.50
14357;DHT22;7262;48.764;9.166;2023-05-29T15:52:59;26.50;80.90